Time;durP1;ratioP1;P1;durP2;ratioP2;P2;SDS_P1;SDS_P2;PMS_P1;PMS_P2;Temp;Humidity;BMP_temperature;BMP_pressure;BME280_temperature;BME280_humidity;BME280_pressure;Samples;Min_cycle;Max_cycle;Signal;HPM_P1;HPM_P2
2021/06/10 00:03:16;;;;;;;11.13;7.50;;;;;;;;;;10294493;28;20151;-68
2021/06/10 00:08:12;;;;;;;9.70;8.27;;;;;;;;;;10292638;28;20060;-68
2021/06/10 00:13:09;;;;;;;14.15;10.05;;;;;;;;;;10290570;28;20048;-66
2021/06/10 00:18:05;;;;;;;11.10;9.23;;;;;;;;;;10280700;28;20135;-66
2021/06/10 00:23:03;;;;;;;12.13;9.70;;;;;;;;;;10284423;28;20057;-68
2021/06/10 00:27:59;;;;;;;12.00;9.52;;;;;;;;;;10283859;28;20063;-67
2021/06/10 00:32:56;;;;;;;11.95;9.95;;;;;;;;;;10268501;28;20056;-67
2021/06/10 00:37:56;;;;;;;12.00;10.30;;;;;;;;;;10275789;28;20095;-66
2021/06/10 00:42:53;;;;;;;13.27;8.82;;;;;;;;;;10284384;28;20071;-68
2021/06/10 00:47:50;;;;;;;12.55;8.60;;;;;;;;;;10282675;28;20507;-67
2021/06/10 00:52:47;;;;;;;10.43;9.32;;;;;;;;;;10287333;28;20414;-65
2021/06/10 00:57:43;;;;;;;12.38;8.60;;;;;;;;;;10276945;28;20044;-67
2021/06/10 01:02:40;;;;;;;11.30;9.85;;;;;;;;;;10270127;28;20533;-68
2021/06/10 01:07:36;;;;;;;11.75;9.90;;;;;;;;;;10291597;28;20469;-68
2021/06/10 01:12:38;;;;;;;11.60;9.55;;;;;;;;;;10277077;28;20557;-68
2021/06/10 01:17:40;;;;;;;10.07;8.25;;;;;;;;;;10287985;28;20068;-68
2021/06/10 01:22:42;;;;;;;12.33;9.90;;;;;;;;;;10290695;28;20040;-64
2021/06/10 01:27:40;;;;;;;12.40;8.73;;;;;;;;;;10279090;28;20076;-68
2021/06/10 01:32:38;;;;;;;11.70;9.07;;;;;;;;;;10269254;28;20653;-67
2021/06/10 01:37:36;;;;;;;13.43;10.07;;;;;;;;;;10270964;28;20073;-68
2021/06/10 01:42:33;;;;;;;10.38;8.68;;;;;;;;;;10273211;28;20048;-67
2021/06/10 01:47:29;;;;;;;11.45;9.43;;;;;;;;;;10275282;28;20482;-66
2021/06/10 01:52:26;;;;;;;12.20;9.85;;;;;;;;;;10264586;28;20144;-67
2021/06/10 01:57:23;;;;;;;12.00;9.25;;;;;;;;;;10268319;28;20091;-66
2021/06/10 02:02:19;;;;;;;12.38;10.18;;;;;;;;;;10266901;28;20133;-67
2021/06/10 02:07:16;;;;;;;10.77;9.27;;;;;;;;;;10275021;28;20052;-68
2021/06/10 02:12:13;;;;;;;13.98;10.90;;;;;;;;;;10261143;28;20580;-67
2021/06/10 02:17:09;;;;;;;13.27;10.10;;;;;;;;;;10272910;28;20059;-65
2021/06/10 02:22:06;;;;;;;13.77;10.82;;;;;;;;;;10261364;28;20051;-68
2021/06/10 02:27:02;;;;;;;14.13;11.45;;;;;;;;;;10273880;28;20133;-68
2021/06/10 02:31:59;;;;;;;13.35;10.23;;;;;;;;;;10282218;28;20076;-67
2021/06/10 02:36:55;;;;;;;13.20;10.90;;;;;;;;;;10270919;28;20514;-68
2021/06/10 02:41:52;;;;;;;15.88;11.75;;;;;;;;;;10281903;28;20095;-67
2021/06/10 02:46:49;;;;;;;11.88;10.60;;;;;;;;;;10271426;28;20046;-68
2021/06/10 02:51:45;;;;;;;12.93;10.40;;;;;;;;;;10280667;28;20045;-68
2021/06/10 02:56:42;;;;;;;13.90;11.10;;;;;;;;;;10278544;28;20136;-67
2021/06/10 03:01:43;;;;;;;12.00;10.18;;;;;;;;;;10275103;28;20140;-66
2021/06/10 03:06:40;;;;;;;14.25;10.18;;;;;;;;;;10275582;28;20037;-67
2021/06/10 03:11:37;;;;;;;12.55;10.00;;;;;;;;;;10268184;28;20080;-67
2021/06/10 03:16:34;;;;;;;12.75;9.93;;;;;;;;;;10264986;28;20938;-68
2021/06/10 03:21:32;;;;;;;12.90;9.60;;;;;;;;;;10272761;28;20075;-67
2021/06/10 03:26:29;;;;;;;13.50;10.75;;;;;;;;;;10286803;28;20092;-68
2021/06/10 03:31:25;;;;;;;13.18;10.60;;;;;;;;;;10274014;28;20053;-68
2021/06/10 03:36:22;;;;;;;13.73;10.40;;;;;;;;;;10269546;28;20049;-68
2021/06/10 03:41:19;;;;;;;12.57;9.85;;;;;;;;;;10286301;28;20047;-64
2021/06/10 03:46:15;;;;;;;11.45;9.88;;;;;;;;;;10277871;28;20072;-67
2021/06/10 03:51:15;;;;;;;12.75;10.23;;;;;;;;;;10278379;28;20166;-67
2021/06/10 03:56:12;;;;;;;12.63;9.75;;;;;;;;;;10274780;28;20106;-68
2021/06/10 04:01:08;;;;;;;10.77;9.48;;;;;;;;;;10281603;28;20139;-66
2021/06/10 04:06:04;;;;;;;12.10;9.55;;;;;;;;;;10275028;28;20121;-64
2021/06/10 04:11:01;;;;;;;12.32;10.02;;;;;;;;;;10278453;28;20091;-67
2021/06/10 04:15:57;;;;;;;13.05;10.23;;;;;;;;;;10287181;28;20143;-68
2021/06/10 04:20:54;;;;;;;10.82;8.95;;;;;;;;;;10294085;28;20052;-66
2021/06/10 04:25:50;;;;;;;9.68;7.93;;;;;;;;;;10279140;28;20137;-66
2021/06/10 04:30:46;;;;;;;10.38;8.50;;;;;;;;;;10287939;28;20107;-68
2021/06/10 04:35:43;;;;;;;9.98;7.50;;;;;;;;;;10291760;28;20045;-66
2021/06/10 04:40:39;;;;;;;9.43;7.78;;;;;;;;;;10285193;28;20094;-68
2021/06/10 04:45:36;;;;;;;9.10;7.57;;;;;;;;;;10273402;28;20128;-67
2021/06/10 04:50:34;;;;;;;10.32;7.70;;;;;;;;;;10279511;28;20119;-67
2021/06/10 04:55:30;;;;;;;11.30;7.60;;;;;;;;;;10266642;28;20082;-66
2021/06/10 05:00:27;;;;;;;12.18;8.07;;;;;;;;;;10274431;28;20060;-68
2021/06/10 05:05:24;;;;;;;9.90;7.32;;;;;;;;;;10271946;28;20087;-69
2021/06/10 05:10:20;;;;;;;10.25;7.97;;;;;;;;;;10267937;28;20075;-68
2021/06/10 05:15:16;;;;;;;13.25;8.30;;;;;;;;;;10284752;28;20148;-68
2021/06/10 05:20:13;;;;;;;14.88;7.50;;;;;;;;;;10281720;28;20076;-67
2021/06/10 05:25:10;;;;;;;8.55;6.90;;;;;;;;;;10282181;28;20049;-67
2021/06/10 05:30:07;;;;;;;8.38;6.28;;;;;;;;;;10276087;28;20273;-65
2021/06/10 05:35:03;;;;;;;8.10;7.13;;;;;;;;;;10280617;28;20056;-67
2021/06/10 05:39:59;;;;;;;8.95;6.28;;;;;;;;;;10274882;28;20556;-68
2021/06/10 05:44:56;;;;;;;7.85;5.75;;;;;;;;;;10284408;28;20132;-66
2021/06/10 05:49:52;;;;;;;8.40;5.28;;;;;;;;;;10283089;28;20546;-68
2021/06/10 05:54:48;;;;;;;9.38;6.03;;;;;;;;;;10281757;28;20127;-66
2021/06/10 05:59:47;;;;;;;9.00;5.88;;;;;;;;;;10275734;28;20040;-65
2021/06/10 06:04:44;;;;;;;7.68;5.70;;;;;;;;;;10269347;28;20085;-68
2021/06/10 06:09:40;;;;;;;7.43;5.28;;;;;;;;;;10289511;28;20067;-68
2021/06/10 06:14:38;;;;;;;9.07;5.68;;;;;;;;;;10288655;28;20498;-68
2021/06/10 06:19:35;;;;;;;9.05;5.72;;;;;;;;;;10273435;28;20041;-67
2021/06/10 06:24:32;;;;;;;6.82;4.70;;;;;;;;;;10270402;28;20550;-67
2021/06/10 06:29:28;;;;;;;8.25;4.00;;;;;;;;;;10277517;28;20486;-66
2021/06/10 06:34:25;;;;;;;8.23;3.80;;;;;;;;;;10272692;28;20045;-68
2021/06/10 06:39:21;;;;;;;8.02;3.10;;;;;;;;;;10276478;28;20086;-68
2021/06/10 06:44:18;;;;;;;5.68;3.15;;;;;;;;;;10269677;28;20570;-68
2021/06/10 06:49:14;;;;;;;6.65;2.70;;;;;;;;;;10277600;28;20068;-67
2021/06/10 06:54:10;;;;;;;5.05;2.80;;;;;;;;;;10276094;28;20048;-68
2021/06/10 06:59:07;;;;;;;9.93;3.17;;;;;;;;;;10279617;28;20103;-68
2021/06/10 07:04:03;;;;;;;6.38;3.20;;;;;;;;;;10273179;28;20082;-66
2021/06/10 07:08:59;;;;;;;7.13;3.42;;;;;;;;;;10276058;28;20076;-66
2021/06/10 07:14:01;;;;;;;8.25;3.45;;;;;;;;;;10282534;28;20044;-68
2021/06/10 07:18:57;;;;;;;7.00;2.85;;;;;;;;;;10291998;28;20083;-68
2021/06/10 07:23:54;;;;;;;10.95;3.38;;;;;;;;;;10279920;28;20107;-67
2021/06/10 07:28:50;;;;;;;7.50;3.75;;;;;;;;;;10274905;28;20049;-66
2021/06/10 07:33:46;;;;;;;6.85;3.80;;;;;;;;;;10278120;28;20463;-67
2021/06/10 07:38:45;;;;;;;8.85;3.90;;;;;;;;;;10284958;28;20072;-68
2021/06/10 07:43:42;;;;;;;9.23;4.47;;;;;;;;;;10282597;28;20076;-67
2021/06/10 07:48:38;;;;;;;8.27;3.22;;;;;;;;;;10283146;28;20569;-68
2021/06/10 07:53:35;;;;;;;7.32;3.95;;;;;;;;;;10272202;28;20061;-67
2021/06/10 07:58:32;;;;;;;9.90;4.70;;;;;;;;;;10277305;28;20045;-67
2021/06/10 08:03:29;;;;;;;8.98;4.05;;;;;;;;;;10284219;28;20053;-67
2021/06/10 08:08:25;;;;;;;6.60;3.67;;;;;;;;;;10282337;28;20084;-65
2021/06/10 08:13:22;;;;;;;9.02;3.80;;;;;;;;;;10280430;28;20045;-68
2021/06/10 08:18:18;;;;;;;7.63;5.20;;;;;;;;;;10278869;28;20045;-67
2021/06/10 08:23:18;;;;;;;10.43;5.78;;;;;;;;;;10275291;28;20068;-65
2021/06/10 08:28:14;;;;;;;6.45;4.10;;;;;;;;;;10287832;28;20638;-67
2021/06/10 08:33:10;;;;;;;9.98;7.10;;;;;;;;;;10280153;28;20418;-67
2021/06/10 08:38:08;;;;;;;11.82;9.98;;;;;;;;;;10280049;28;20040;-67
2021/06/10 08:43:08;;;;;;;12.27;7.95;;;;;;;;;;10287263;28;20572;-67
2021/06/10 08:48:05;;;;;;;9.32;6.38;;;;;;;;;;10278262;28;20049;-66
2021/06/10 08:53:01;;;;;;;6.70;4.25;;;;;;;;;;10279680;28;20557;-67
2021/06/10 08:57:58;;;;;;;7.68;4.72;;;;;;;;;;10277973;28;20044;-67
2021/06/10 09:02:56;;;;;;;13.85;8.43;;;;;;;;;;10287231;28;20040;-67
2021/06/10 09:07:56;;;;;;;10.05;6.30;;;;;;;;;;10281774;28;20110;-67
2021/06/10 09:12:55;;;;;;;11.05;7.25;;;;;;;;;;10289587;28;20064;-66
2021/06/10 09:17:54;;;;;;;7.90;5.90;;;;;;;;;;10294229;28;20048;-67
2021/06/10 09:22:52;;;;;;;13.27;9.02;;;;;;;;;;10288080;28;20110;-67
2021/06/10 09:27:51;;;;;;;13.38;9.40;;;;;;;;;;10279626;28;20096;-66
2021/06/10 09:32:47;;;;;;;11.68;8.50;;;;;;;;;;10281533;28;20052;-67
2021/06/10 09:37:46;;;;;;;16.30;10.90;;;;;;;;;;10280303;28;20055;-67
2021/06/10 09:42:44;;;;;;;15.50;11.25;;;;;;;;;;10275938;28;20446;-67
2021/06/10 09:47:44;;;;;;;13.70;11.00;;;;;;;;;;10279975;28;20033;-66
2021/06/10 09:52:44;;;;;;;12.32;9.55;;;;;;;;;;10275711;28;20565;-66
2021/06/10 09:57:40;;;;;;;13.90;9.48;;;;;;;;;;10276630;28;20088;-67
2021/06/10 10:02:39;;;;;;;15.70;10.50;;;;;;;;;;10284386;28;20049;-66
2021/06/10 10:07:36;;;;;;;18.10;9.65;;;;;;;;;;10280321;28;20468;-65
2021/06/10 10:12:33;;;;;;;11.95;9.05;;;;;;;;;;10286929;28;20048;-67
2021/06/10 10:17:30;;;;;;;13.75;7.53;;;;;;;;;;10286377;28;20646;-67
2021/06/10 10:22:26;;;;;;;16.20;10.52;;;;;;;;;;10281465;28;20079;-67
2021/06/10 10:27:23;;;;;;;14.50;10.80;;;;;;;;;;10269143;28;20087;-68
2021/06/10 10:32:21;;;;;;;15.15;10.25;;;;;;;;;;10279263;28;20041;-68
2021/06/10 10:37:17;;;;;;;14.48;8.93;;;;;;;;;;10271163;28;20455;-67
2021/06/10 10:42:30;;;;;;;13.82;9.48;;;;;;;;;;10276671;28;20567;-68
2021/06/10 10:47:39;;;;;;;12.85;9.25;;;;;;;;;;10278221;28;20115;-66
2021/06/10 10:52:39;;;;;;;9.18;7.93;;;;;;;;;;10286914;28;20650;-66
2021/06/10 10:57:39;;;;;;;10.55;9.05;;;;;;;;;;10291071;28;20070;-67
2021/06/10 11:02:41;;;;;;;11.18;9.05;;;;;;;;;;10294150;28;20466;-68
2021/06/10 11:07:40;;;;;;;12.13;9.02;;;;;;;;;;10289142;28;20098;-67
2021/06/10 11:12:40;;;;;;;12.73;10.82;;;;;;;;;;10289227;28;20056;-68
2021/06/10 11:17:43;;;;;;;12.38;8.80;;;;;;;;;;10288258;28;20048;-64
2021/06/10 11:22:41;;;;;;;11.50;8.65;;;;;;;;;;10284986;28;20123;-68
2021/06/10 11:27:38;;;;;;;11.27;9.05;;;;;;;;;;10286992;28;20058;-67
2021/06/10 11:32:55;;;;;;;8.73;6.97;;;;;;;;;;10292155;28;20114;-67
2021/06/10 11:37:51;;;;;;;12.80;7.10;;;;;;;;;;10288580;28;20131;-66
2021/06/10 11:42:49;;;;;;;11.55;7.97;;;;;;;;;;10286315;28;20053;-67
2021/06/10 11:47:46;;;;;;;20.00;7.47;;;;;;;;;;10282423;28;20140;-67
2021/06/10 11:52:49;;;;;;;10.23;7.30;;;;;;;;;;10280386;28;20057;-68
2021/06/10 11:57:52;;;;;;;9.00;7.57;;;;;;;;;;10262790;28;20045;-67
2021/06/10 12:02:53;;;;;;;9.48;6.40;;;;;;;;;;10276511;28;20404;-66
2021/06/10 12:07:49;;;;;;;10.13;7.07;;;;;;;;;;10277962;28;60081;-65
2021/06/10 12:12:47;;;;;;;10.10;6.63;;;;;;;;;;10279684;28;20061;-67
2021/06/10 12:17:51;;;;;;;8.95;5.82;;;;;;;;;;10292413;28;20064;-67
2021/06/10 12:22:48;;;;;;;7.78;5.70;;;;;;;;;;10294196;28;20087;-64
2021/06/10 12:27:45;;;;;;;8.20;4.88;;;;;;;;;;10298440;28;20141;-67
2021/06/10 12:32:42;;;;;;;11.15;6.47;;;;;;;;;;10287352;28;20091;-68
2021/06/10 12:37:38;;;;;;;10.98;7.13;;;;;;;;;;10283970;28;20151;-68
2021/06/10 12:42:34;;;;;;;8.93;5.65;;;;;;;;;;10277034;28;20140;-68
2021/06/10 12:47:31;;;;;;;7.68;6.07;;;;;;;;;;10273566;28;20041;-67
2021/06/10 12:52:32;;;;;;;11.00;6.55;;;;;;;;;;10278053;28;20439;-67
2021/06/10 12:57:30;;;;;;;8.52;6.63;;;;;;;;;;10277068;28;20131;-66
2021/06/10 13:02:27;;;;;;;10.18;5.90;;;;;;;;;;10284496;28;20090;-67
2021/06/10 13:07:28;;;;;;;9.18;5.68;;;;;;;;;;10280036;28;20065;-66
2021/06/10 13:12:26;;;;;;;10.05;6.38;;;;;;;;;;10272532;28;20144;-67
2021/06/10 13:17:42;;;;;;;9.75;7.63;;;;;;;;;;10275288;28;20086;-67
2021/06/10 13:22:38;;;;;;;9.07;6.90;;;;;;;;;;10285189;28;20044;-67
2021/06/10 13:27:35;;;;;;;13.15;7.68;;;;;;;;;;10280566;28;20485;-66
2021/06/10 13:32:32;;;;;;;10.43;7.18;;;;;;;;;;10278421;28;20040;-67
2021/06/10 13:37:28;;;;;;;8.60;7.07;;;;;;;;;;10278113;28;20068;-66
2021/06/10 13:42:27;;;;;;;9.30;7.22;;;;;;;;;;10285841;28;20123;-64
2021/06/10 13:47:24;;;;;;;8.52;6.82;;;;;;;;;;10275938;28;20096;-68
2021/06/10 13:52:20;;;;;;;10.82;5.78;;;;;;;;;;10279692;28;20053;-65
2021/06/10 13:57:16;;;;;;;13.88;8.15;;;;;;;;;;10278985;28;20076;-67
2021/06/10 14:02:12;;;;;;;13.40;8.57;;;;;;;;;;10264545;28;20071;-67
2021/06/10 14:07:09;;;;;;;9.85;7.93;;;;;;;;;;10280908;28;20047;-67
2021/06/10 14:12:06;;;;;;;14.77;8.75;;;;;;;;;;10273963;28;20462;-67
2021/06/10 14:17:02;;;;;;;7.53;6.43;;;;;;;;;;10284221;28;20098;-68
2021/06/10 14:21:59;;;;;;;10.00;7.63;;;;;;;;;;10287789;28;20044;-67
2021/06/10 14:26:55;;;;;;;10.80;8.43;;;;;;;;;;10276870;28;20041;-67
2021/06/10 14:36:50;;;;;;;11.40;6.45;;;;;;;;;;10265006;28;20045;-66
2021/06/10 14:41:46;;;;;;;13.88;9.35;;;;;;;;;;10283282;28;20048;-67
2021/06/10 14:46:42;;;;;;;11.73;9.20;;;;;;;;;;10283851;28;20070;-69
2021/06/10 14:51:43;;;;;;;12.63;7.20;;;;;;;;;;10269618;28;20065;-68
2021/06/10 14:56:39;;;;;;;10.93;9.65;;;;;;;;;;10275293;28;20083;-68
2021/06/10 15:01:35;;;;;;;11.75;9.13;;;;;;;;;;10282167;28;20045;-66
2021/06/10 15:06:32;;;;;;;11.75;7.78;;;;;;;;;;10269315;28;20068;-68
2021/06/10 15:11:28;;;;;;;17.08;9.80;;;;;;;;;;10281777;28;20053;-66
2021/06/10 15:16:25;;;;;;;9.23;8.23;;;;;;;;;;10290642;28;20045;-67
2021/06/10 15:21:21;;;;;;;11.40;9.18;;;;;;;;;;10247970;28;20046;-68
2021/06/10 15:26:18;;;;;;;10.95;7.05;;;;;;;;;;10253057;28;20045;-67
2021/06/10 15:31:15;;;;;;;11.57;6.35;;;;;;;;;;10252458;28;20061;-67
2021/06/10 15:36:13;;;;;;;14.68;9.15;;;;;;;;;;10250355;28;20573;-66
2021/06/10 15:41:10;;;;;;;12.23;9.38;;;;;;;;;;10258215;28;20037;-67
2021/06/10 15:46:06;;;;;;;10.60;8.32;;;;;;;;;;10258365;28;20121;-67
2021/06/10 15:51:03;;;;;;;10.20;8.48;;;;;;;;;;10276000;28;20740;-68
2021/06/10 15:56:01;;;;;;;13.00;10.30;;;;;;;;;;10283555;28;20029;-68
2021/06/10 16:00:57;;;;;;;9.73;7.28;;;;;;;;;;10281463;28;20077;-67
2021/06/10 16:05:54;;;;;;;10.30;7.53;;;;;;;;;;10279842;28;20499;-66
2021/06/10 16:10:50;;;;;;;11.25;8.15;;;;;;;;;;10289998;28;20048;-66
2021/06/10 16:15:46;;;;;;;14.50;8.10;;;;;;;;;;10270740;28;20423;-67
2021/06/10 16:20:44;;;;;;;13.32;8.50;;;;;;;;;;10262006;28;20518;-67
2021/06/10 16:25:40;;;;;;;13.07;8.13;;;;;;;;;;10263754;28;20152;-68
2021/06/10 16:30:36;;;;;;;9.82;8.27;;;;;;;;;;10254377;28;20068;-64
2021/06/10 16:35:33;;;;;;;13.45;10.20;;;;;;;;;;10253293;28;20069;-66
2021/06/10 16:40:29;;;;;;;12.35;10.15;;;;;;;;;;10260372;28;20045;-65
2021/06/10 16:45:26;;;;;;;11.65;9.48;;;;;;;;;;10263597;28;20052;-69
2021/06/10 16:50:22;;;;;;;14.95;12.50;;;;;;;;;;10282449;28;20090;-67
2021/06/10 16:55:18;;;;;;;14.98;11.30;;;;;;;;;;10273272;28;20540;-68
2021/06/10 17:00:20;;;;;;;12.25;9.27;;;;;;;;;;10290955;28;20044;-69
2021/06/10 17:05:16;;;;;;;11.25;9.95;;;;;;;;;;10274947;28;20187;-69
2021/06/10 17:10:13;;;;;;;17.52;11.85;;;;;;;;;;10279923;28;20068;-66
2021/06/10 17:15:10;;;;;;;14.00;11.10;;;;;;;;;;10276119;28;20130;-66
2021/06/10 17:20:08;;;;;;;12.32;9.82;;;;;;;;;;10285533;28;20060;-68
2021/06/10 17:25:05;;;;;;;12.35;10.73;;;;;;;;;;10287319;28;20521;-67
2021/06/10 17:30:03;;;;;;;12.43;10.63;;;;;;;;;;10278606;28;20099;-68
2021/06/10 17:34:59;;;;;;;17.17;10.32;;;;;;;;;;10277210;28;20080;-68
2021/06/10 17:39:56;;;;;;;12.50;7.95;;;;;;;;;;10286813;28;20102;-65
2021/06/10 17:44:52;;;;;;;12.00;9.25;;;;;;;;;;10263176;28;20076;-67
2021/06/10 17:49:48;;;;;;;11.30;9.18;;;;;;;;;;10282063;28;20059;-68
2021/06/10 17:54:45;;;;;;;12.70;8.98;;;;;;;;;;10274797;28;20044;-68
2021/06/10 17:59:41;;;;;;;15.77;8.45;;;;;;;;;;10275626;28;20091;-69
2021/06/10 18:04:38;;;;;;;14.43;8.20;;;;;;;;;;10272971;28;20029;-66
2021/06/10 18:09:36;;;;;;;13.45;7.88;;;;;;;;;;10281765;28;20638;-68
2021/06/10 18:14:32;;;;;;;13.63;8.07;;;;;;;;;;10273028;28;20642;-66
2021/06/10 18:19:29;;;;;;;13.98;8.95;;;;;;;;;;10280103;28;20066;-67
2021/06/10 18:24:26;;;;;;;11.90;8.25;;;;;;;;;;10277965;28;20068;-68
2021/06/10 18:29:29;;;;;;;13.38;8.48;;;;;;;;;;10271487;28;20048;-67
2021/06/10 18:34:25;;;;;;;12.55;7.75;;;;;;;;;;10272978;28;20041;-68
2021/06/10 18:39:22;;;;;;;15.60;8.60;;;;;;;;;;10280197;28;20094;-67
2021/06/10 18:44:18;;;;;;;10.98;7.47;;;;;;;;;;10281093;28;20098;-66
2021/06/10 18:49:15;;;;;;;11.85;7.38;;;;;;;;;;10270061;28;20068;-69
2021/06/10 18:54:11;;;;;;;9.32;6.53;;;;;;;;;;10274894;28;20131;-66
2021/06/10 18:59:08;;;;;;;12.85;8.38;;;;;;;;;;10270718;28;20045;-67
2021/06/10 19:04:04;;;;;;;12.35;7.50;;;;;;;;;;10282307;28;20476;-68
2021/06/10 19:09:01;;;;;;;11.73;7.85;;;;;;;;;;10267955;28;20043;-67
2021/06/10 19:13:57;;;;;;;10.70;7.70;;;;;;;;;;10287075;28;20049;-65
2021/06/10 19:18:53;;;;;;;10.40;6.28;;;;;;;;;;10292761;28;20083;-67
2021/06/10 19:23:50;;;;;;;11.23;6.75;;;;;;;;;;10276575;28;20087;-66
2021/06/10 19:28:46;;;;;;;14.15;6.65;;;;;;;;;;10287224;28;20120;-68
2021/06/10 19:33:56;;;;;;;9.25;5.07;;;;;;;;;;10282041;28;20094;-68
2021/06/10 19:38:53;;;;;;;8.32;5.10;;;;;;;;;;10280770;28;20153;-68
2021/06/10 19:43:49;;;;;;;7.57;4.63;;;;;;;;;;10286405;28;20093;-66
2021/06/10 19:48:46;;;;;;;7.25;3.88;;;;;;;;;;10283670;28;20045;-68
2021/06/10 19:53:42;;;;;;;8.32;3.35;;;;;;;;;;10286316;28;20132;-68
2021/06/10 19:58:38;;;;;;;11.32;7.70;;;;;;;;;;10275688;28;20069;-68
2021/06/10 20:03:34;;;;;;;8.90;3.78;;;;;;;;;;10280590;28;20120;-65
2021/06/10 20:08:33;;;;;;;5.40;3.00;;;;;;;;;;10269978;28;20048;-67
2021/06/10 20:13:29;;;;;;;5.15;2.75;;;;;;;;;;10266616;28;20049;-67
2021/06/10 20:18:27;;;;;;;6.65;3.60;;;;;;;;;;10275493;28;20061;-68
2021/06/10 20:23:24;;;;;;;6.32;2.38;;;;;;;;;;10284711;28;20041;-68
2021/06/10 20:33:35;;;;;;;6.15;1.98;;;;;;;;;;10269410;28;20044;-67
2021/06/10 20:38:32;;;;;;;4.70;2.10;;;;;;;;;;10273572;28;20068;-68
2021/06/10 20:43:28;;;;;;;5.10;2.65;;;;;;;;;;10272973;28;20556;-68
2021/06/10 20:48:24;;;;;;;5.25;1.80;;;;;;;;;;10281380;28;20527;-68
2021/06/10 20:53:20;;;;;;;4.72;2.08;;;;;;;;;;10282488;28;20541;-68
2021/06/10 20:58:17;;;;;;;5.88;1.77;;;;;;;;;;10281492;28;20044;-68
2021/06/10 21:03:13;;;;;;;4.45;2.38;;;;;;;;;;10271653;28;20449;-67
2021/06/10 21:08:10;;;;;;;6.13;2.50;;;;;;;;;;10279857;28;20081;-69
2021/06/10 21:13:06;;;;;;;4.53;2.00;;;;;;;;;;10279513;28;20041;-68
2021/06/10 21:18:03;;;;;;;6.88;2.25;;;;;;;;;;10273110;28;20476;-66
2021/06/10 21:22:59;;;;;;;4.32;2.15;;;;;;;;;;10288245;28;20124;-68
2021/06/10 21:27:55;;;;;;;5.38;2.90;;;;;;;;;;10281314;28;20476;-67
2021/06/10 21:32:52;;;;;;;5.45;3.33;;;;;;;;;;10290259;28;20090;-67
2021/06/10 21:37:48;;;;;;;6.93;2.90;;;;;;;;;;10292363;28;20098;-68
2021/06/10 21:42:45;;;;;;;6.30;2.65;;;;;;;;;;10284367;28;20438;-66
2021/06/10 21:47:41;;;;;;;7.13;2.60;;;;;;;;;;10270607;28;20037;-67
2021/06/10 21:52:38;;;;;;;10.77;7.47;;;;;;;;;;10276304;28;20083;-67
2021/06/10 21:57:34;;;;;;;10.32;6.03;;;;;;;;;;10268085;28;20060;-67
2021/06/10 22:02:30;;;;;;;7.43;3.97;;;;;;;;;;10250072;28;20072;-67
2021/06/10 22:07:27;;;;;;;7.43;4.53;;;;;;;;;;10278466;28;20051;-68
2021/06/10 22:12:23;;;;;;;7.30;4.45;;;;;;;;;;10273490;28;20077;-68
2021/06/10 22:17:25;;;;;;;13.98;6.20;;;;;;;;;;10284528;28;20132;-68
2021/06/10 22:22:22;;;;;;;11.57;6.37;;;;;;;;;;10268672;28;20165;-68
2021/06/10 22:27:19;;;;;;;11.07;6.55;;;;;;;;;;10286733;28;20029;-66
2021/06/10 22:32:15;;;;;;;10.52;7.68;;;;;;;;;;10278877;28;20036;-68
2021/06/10 22:37:11;;;;;;;9.90;6.80;;;;;;;;;;10279456;28;20123;-66
2021/06/10 22:42:08;;;;;;;10.35;7.65;;;;;;;;;;10278022;28;20124;-67
2021/06/10 22:47:05;;;;;;;18.20;9.77;;;;;;;;;;10279240;28;20402;-64
2021/06/10 22:52:01;;;;;;;13.35;10.25;;;;;;;;;;10286633;28;20072;-68
2021/06/10 22:56:57;;;;;;;15.63;11.02;;;;;;;;;;10289916;28;20044;-67
2021/06/10 23:01:55;;;;;;;14.73;10.30;;;;;;;;;;10288390;28;20065;-67
2021/06/10 23:06:51;;;;;;;14.23;10.30;;;;;;;;;;10285202;28;20080;-65
2021/06/10 23:11:48;;;;;;;13.98;10.05;;;;;;;;;;10284180;28;20064;-68
2021/06/10 23:16:44;;;;;;;14.85;10.18;;;;;;;;;;10284365;28;20049;-68
2021/06/10 23:21:40;;;;;;;12.40;8.95;;;;;;;;;;10290023;28;20184;-66
2021/06/10 23:26:37;;;;;;;12.27;9.60;;;;;;;;;;10284496;28;20135;-68
2021/06/10 23:31:33;;;;;;;18.23;10.07;;;;;;;;;;10282581;28;20155;-66
2021/06/10 23:36:30;;;;;;;15.15;10.35;;;;;;;;;;10285776;28;20049;-67
2021/06/10 23:41:27;;;;;;;11.75;9.05;;;;;;;;;;10277276;28;20383;-68
2021/06/10 23:46:23;;;;;;;15.60;9.88;;;;;;;;;;10282276;28;20470;-68
2021/06/10 23:51:20;;;;;;;13.20;9.40;;;;;;;;;;10288693;28;20427;-66
2021/06/10 23:56:16;;;;;;;11.55;9.38;;;;;;;;;;10278074;28;20075;-67
